createdAt,value
2023-01-15T00:01:52.941Z,95318.26
2023-01-15T00:04:19.530Z,95311.48
2023-01-15T00:06:45.847Z,95315.08
2023-01-15T00:09:12.192Z,95315.21
2023-01-15T00:11:38.602Z,95317.44
2023-01-15T00:14:04.955Z,95309.38
2023-01-15T00:16:31.341Z,95308.55
2023-01-15T00:18:57.680Z,95300.68
2023-01-15T00:21:24.221Z,95313.11
2023-01-15T00:23:50.574Z,95313.80
2023-01-15T00:26:17.118Z,95311.81
2023-01-15T00:28:43.453Z,95310.89
2023-01-15T00:31:11.130Z,95310.05
2023-01-15T00:33:36.295Z,95314.24
2023-01-15T00:36:02.669Z,95313.42
2023-01-15T00:38:29.041Z,95312.49
2023-01-15T00:40:55.582Z,95315.99
2023-01-15T00:43:21.901Z,95314.14
2023-01-15T00:45:48.290Z,95312.84
2023-01-15T00:48:14.631Z,95308.25
2023-01-15T00:50:41.063Z,95299.83
2023-01-15T00:53:07.396Z,95302.41
2023-01-15T00:55:33.807Z,95299.92
2023-01-15T00:58:00.146Z,95303.23
2023-01-15T01:00:26.560Z,95291.73
2023-01-15T01:02:52.978Z,95297.34
2023-01-15T01:05:19.356Z,95296.52
2023-01-15T01:07:45.756Z,95304.62
2023-01-15T01:10:12.133Z,95306.37
2023-01-15T01:12:38.586Z,95301.58
2023-01-15T01:15:04.969Z,95305.20
2023-01-15T01:17:31.463Z,95302.97
2023-01-15T01:19:57.858Z,95303.79
2023-01-15T01:22:24.204Z,95304.25
2023-01-15T01:24:50.624Z,95297.58
2023-01-15T01:27:17.004Z,95303.19
2023-01-15T01:29:43.459Z,95298.53
2023-01-15T01:32:09.966Z,95293.11
2023-01-15T01:34:36.424Z,95294.30
2023-01-15T01:37:02.874Z,95289.61
2023-01-15T01:39:29.267Z,95282.34
2023-01-15T01:41:55.607Z,95285.38
2023-01-15T01:44:22.102Z,95288.78
2023-01-15T01:46:48.519Z,95288.08
2023-01-15T01:49:14.888Z,95283.76
2023-01-15T01:51:41.235Z,95286.80
2023-01-15T01:54:07.633Z,95293.84
2023-01-15T01:56:33.994Z,95295.12
2023-01-15T01:59:00.379Z,95291.26
2023-01-15T02:01:26.900Z,95294.66
2023-01-15T02:03:53.192Z,95289.02
2023-01-15T02:06:19.517Z,95286.44
2023-01-15T02:08:45.954Z,95290.30
2023-01-15T02:11:12.327Z,95297.70
2023-01-15T02:13:38.877Z,95291.48
2023-01-15T02:16:05.259Z,95294.30
2023-01-15T02:18:31.629Z,95285.75
2023-01-15T02:20:57.971Z,95291.95
2023-01-15T02:23:24.459Z,95287.49
2023-01-15T02:25:50.829Z,95288.69
2023-01-15T02:28:17.220Z,95285.38
2023-01-15T02:30:43.571Z,95286.20
2023-01-15T02:33:09.950Z,95284.45
2023-01-15T02:35:36.319Z,95289.00
2023-01-15T02:38:02.677Z,95286.56
2023-01-15T02:40:29.060Z,95288.77
2023-01-15T02:42:55.399Z,95284.30
2023-01-15T02:45:21.788Z,95279.98
2023-01-15T02:47:48.144Z,95282.09
2023-01-15T02:50:14.591Z,95288.77
2023-01-15T02:52:40.958Z,95279.52
2023-01-15T02:55:07.367Z,95269.77
2023-01-15T02:57:33.798Z,95273.88
2023-01-15T03:00:00.222Z,95274.70
2023-01-15T03:02:26.714Z,95276.25
2023-01-15T03:04:53.077Z,95279.99
2023-01-15T03:07:20.637Z,95274.02
2023-01-15T03:09:45.790Z,95270.52
2023-01-15T03:12:12.190Z,95268.86
2023-01-15T03:14:38.615Z,95276.27
2023-01-15T03:17:04.950Z,95269.39
2023-01-15T03:19:31.395Z,95277.34
2023-01-15T03:21:57.816Z,95279.36
2023-01-15T03:24:24.195Z,95278.41
2023-01-15T03:26:50.537Z,95286.03
2023-01-15T03:29:16.929Z,95284.63
2023-01-15T03:31:43.351Z,95289.31
2023-01-15T03:34:09.801Z,95277.86
2023-01-15T03:36:36.199Z,95285.37
2023-01-15T03:39:02.577Z,95289.08
2023-01-15T03:41:28.955Z,95285.29
2023-01-15T03:43:55.309Z,95281.89
2023-01-15T03:46:21.737Z,95291.50
2023-01-15T03:48:48.060Z,95291.74
2023-01-15T03:51:14.463Z,95288.38
2023-01-15T03:53:40.927Z,95293.63
2023-01-15T03:56:07.231Z,95290.05
2023-01-15T03:58:33.623Z,95289.69
2023-01-15T04:01:00.053Z,95290.91
2023-01-15T04:03:26.358Z,95283.30
2023-01-15T04:05:52.710Z,95289.16
2023-01-15T04:08:19.093Z,95286.35
2023-01-15T04:10:45.431Z,95280.28
2023-01-15T04:13:11.823Z,95279.77
2023-01-15T04:15:38.346Z,95279.58
2023-01-15T04:18:04.688Z,95277.34
2023-01-15T04:20:31.026Z,95274.91
2023-01-15T04:22:57.415Z,95272.54
2023-01-15T04:25:23.764Z,95273.34
2023-01-15T04:27:50.152Z,95279.92
2023-01-15T04:30:16.505Z,95278.76
2023-01-15T04:32:42.886Z,95281.65
2023-01-15T04:35:09.281Z,95290.80
2023-01-15T04:37:35.676Z,95284.61
2023-01-15T04:40:02.017Z,95284.98
2023-01-15T04:42:28.438Z,95287.62
2023-01-15T04:44:54.826Z,95294.20
2023-01-15T04:47:21.215Z,95295.45
2023-01-15T04:49:47.556Z,95298.99
2023-01-15T04:52:13.944Z,95301.47
2023-01-15T04:54:40.291Z,95303.94
2023-01-15T04:57:08.178Z,95301.71
2023-01-15T04:59:33.124Z,95296.86
2023-01-15T05:02:05.627Z,95292.41
2023-01-15T05:04:25.947Z,95292.31
2023-01-15T05:06:52.289Z,95293.75
2023-01-15T05:09:18.698Z,95296.26
2023-01-15T05:11:45.095Z,95295.94
2023-01-15T05:14:11.409Z,95288.91
2023-01-15T05:16:37.830Z,95298.41
2023-01-15T05:19:04.265Z,95296.11
2023-01-15T05:21:30.625Z,95291.71
2023-01-15T05:23:56.965Z,95287.58
2023-01-15T05:26:23.396Z,95287.11
2023-01-15T05:28:49.732Z,95293.19
2023-01-15T05:31:16.246Z,95294.52
2023-01-15T05:33:42.535Z,95291.97
2023-01-15T05:36:08.919Z,95295.37
2023-01-15T05:38:35.308Z,95289.55
2023-01-15T05:41:01.701Z,95293.78
2023-01-15T05:43:28.077Z,95292.41
2023-01-15T05:45:54.537Z,95287.55
2023-01-15T05:48:20.836Z,95284.46
2023-01-15T05:50:47.246Z,95283.69
2023-01-15T05:53:13.615Z,95293.31
2023-01-15T05:55:40.037Z,95289.70
2023-01-15T05:58:06.377Z,95294.06
2023-01-15T06:00:32.836Z,95297.56
2023-01-15T06:02:59.279Z,95298.63
2023-01-15T06:05:25.687Z,95301.25
2023-01-15T06:07:52.012Z,95303.02
2023-01-15T06:10:18.403Z,95305.81
2023-01-15T06:12:44.751Z,95307.70
2023-01-15T06:15:11.187Z,95304.21
2023-01-15T06:17:37.573Z,95299.74
2023-01-15T06:20:03.986Z,95299.74
2023-01-15T06:22:30.306Z,95304.43
2023-01-15T06:24:56.711Z,95304.67
2023-01-15T06:27:23.075Z,95307.48
2023-01-15T06:29:49.453Z,95307.70
2023-01-15T06:32:15.877Z,95305.95
2023-01-15T06:34:42.309Z,95298.33
2023-01-15T06:37:08.642Z,95295.05
2023-01-15T06:39:35.030Z,95296.21
2023-01-15T06:42:01.376Z,95293.41
2023-01-15T06:44:28.349Z,95299.30
2023-01-15T06:46:54.334Z,95302.34
2023-01-15T06:49:20.585Z,95301.90
2023-01-15T06:51:46.982Z,95303.79
2023-01-15T06:54:13.429Z,95304.98
2023-01-15T06:56:39.809Z,95299.22
2023-01-15T06:59:06.251Z,95300.50
2023-01-15T07:01:32.726Z,95295.52
2023-01-15T07:03:59.160Z,95302.33
2023-01-15T07:06:26.514Z,95302.20
2023-01-15T07:08:51.802Z,95306.80
2023-01-15T07:11:18.290Z,95302.11
2023-01-15T07:13:44.675Z,95302.11
2023-01-15T07:16:11.129Z,95298.95
2023-01-15T07:18:37.450Z,95294.52
2023-01-15T07:21:03.833Z,95298.84
2023-01-15T07:23:30.296Z,95306.20
2023-01-15T07:25:58.679Z,95296.78
2023-01-15T07:28:23.042Z,95298.75
2023-01-15T07:30:49.501Z,95297.34
2023-01-15T07:33:15.937Z,95301.47
2023-01-15T07:35:42.251Z,95303.38
2023-01-15T07:38:08.643Z,95302.63
2023-01-15T07:40:35.003Z,95304.36
2023-01-15T07:43:01.400Z,95310.80
2023-01-15T07:45:27.877Z,95306.35
2023-01-15T07:47:54.158Z,95310.38
2023-01-15T07:50:20.539Z,95308.55
2023-01-15T07:52:46.951Z,95309.61
2023-01-15T07:55:13.488Z,95313.25
2023-01-15T07:57:39.897Z,95311.05
2023-01-15T08:00:06.294Z,95310.91
2023-01-15T08:02:32.689Z,95310.31
2023-01-15T08:04:59.038Z,95311.59
2023-01-15T08:07:25.416Z,95312.70
2023-01-15T08:09:51.824Z,95310.59
2023-01-15T08:12:18.354Z,95306.49
2023-01-15T08:14:44.662Z,95315.75
2023-01-15T08:17:11.059Z,95313.84
2023-01-15T08:19:37.423Z,95311.88
2023-01-15T08:22:03.792Z,95312.80
2023-01-15T08:24:30.169Z,95318.39
2023-01-15T08:26:56.625Z,95315.59
2023-01-15T08:29:22.948Z,95321.11
2023-01-15T08:31:49.382Z,95318.31
2023-01-15T08:34:15.685Z,95324.48
2023-01-15T08:36:42.118Z,95321.20
2023-01-15T08:39:08.411Z,95326.03
2023-01-15T08:41:34.801Z,95318.09
2023-01-15T08:44:01.156Z,95316.34
2023-01-15T08:46:27.546Z,95313.87
2023-01-15T08:48:53.926Z,95321.33
2023-01-15T08:51:20.311Z,95317.24
2023-01-15T08:53:46.653Z,95318.41
2023-01-15T08:56:13.074Z,95313.63
2023-01-15T08:58:39.472Z,95314.97
2023-01-15T09:01:05.951Z,95315.89
2023-01-15T09:03:32.196Z,95320.36
2023-01-15T09:05:58.589Z,95315.99
2023-01-15T09:08:24.976Z,95315.80
2023-01-15T09:10:51.417Z,95317.58
2023-01-15T09:13:17.752Z,95317.28
2023-01-15T09:15:44.144Z,95310.81
2023-01-15T09:18:10.561Z,95308.33
2023-01-15T09:20:36.937Z,95305.06
2023-01-15T09:23:03.273Z,95305.91
2023-01-15T09:25:29.655Z,95301.50
2023-01-15T09:27:56.003Z,95299.14
2023-01-15T09:30:22.502Z,95303.62
2023-01-15T09:32:48.801Z,95301.91
2023-01-15T09:35:15.183Z,95298.22
2023-01-15T09:37:41.555Z,95294.55
2023-01-15T09:40:07.949Z,95290.45
2023-01-15T09:42:34.339Z,95290.09
2023-01-15T09:45:00.730Z,95288.75
2023-01-15T09:47:27.070Z,95283.00
2023-01-15T09:49:53.475Z,95274.45
2023-01-15T09:52:19.899Z,95269.75
2023-01-15T09:54:46.314Z,95267.17
2023-01-15T09:57:12.657Z,95262.38
2023-01-15T09:59:39.099Z,95256.86
2023-01-15T10:02:05.449Z,95255.34
2023-01-15T10:04:31.922Z,95245.04
2023-01-15T10:06:58.262Z,95241.17
2023-01-15T10:09:24.650Z,95238.46
2023-01-15T10:11:51.006Z,95232.98
2023-01-15T10:14:17.394Z,95235.89
2023-01-15T10:16:43.744Z,95225.12
2023-01-15T10:19:10.139Z,95217.61
2023-01-15T10:21:36.517Z,95221.58
2023-01-15T10:24:03.020Z,95212.92
2023-01-15T10:26:29.298Z,95204.84
2023-01-15T10:28:55.729Z,95205.20
2023-01-15T10:31:22.228Z,95199.22
2023-01-15T10:33:48.534Z,95202.52
2023-01-15T10:36:14.911Z,95196.64
2023-01-15T10:38:41.293Z,95192.31
2023-01-15T10:41:07.642Z,95190.89
2023-01-15T10:43:34.189Z,95179.30
2023-01-15T10:46:00.544Z,95175.56
2023-01-15T10:48:26.920Z,95176.13
2023-01-15T10:50:53.264Z,95170.41
2023-01-15T10:53:19.699Z,95166.06
2023-01-15T10:55:46.050Z,95166.19
2023-01-15T10:58:12.438Z,95158.03
2023-01-15T11:00:38.816Z,95152.64
2023-01-15T11:03:05.379Z,95151.22
2023-01-15T11:05:31.706Z,95141.66
2023-01-15T11:10:24.439Z,95139.98
2023-01-15T11:12:51.015Z,95136.02
2023-01-15T11:15:17.450Z,95129.34
2023-01-15T11:17:45.759Z,95119.38
2023-01-15T11:20:10.163Z,95119.27
2023-01-15T11:22:36.737Z,95122.08
2023-01-15T11:25:03.143Z,95117.39
2023-01-15T11:27:29.601Z,95114.91
2023-01-15T11:29:55.940Z,95114.34
2023-01-15T11:32:22.307Z,95109.30
2023-01-15T11:34:48.655Z,95106.84
2023-01-15T11:37:15.048Z,95100.16
2023-01-15T11:39:41.438Z,95095.61
2023-01-15T11:42:07.837Z,95094.32
2023-01-15T11:44:34.317Z,95088.58
2023-01-15T11:47:00.719Z,95078.02
2023-01-15T11:49:27.218Z,95082.38
2023-01-15T11:51:53.578Z,95079.20
2023-01-15T11:54:19.928Z,95072.05
2023-01-15T11:56:46.329Z,95069.83
2023-01-15T11:59:12.720Z,95066.17
2023-01-15T12:01:39.122Z,95067.47
2023-01-15T12:04:05.599Z,95062.81
2023-01-15T12:06:31.855Z,95062.21
2023-01-15T12:08:58.343Z,95056.00
2023-01-15T12:11:27.000Z,95058.34
2023-01-15T12:13:51.063Z,95052.97
2023-01-15T12:16:17.558Z,95046.52
2023-01-15T12:18:43.823Z,95049.55
2023-01-15T12:21:10.236Z,95044.44
2023-01-15T12:23:36.650Z,95041.97
2023-01-15T12:26:04.177Z,95040.75
2023-01-15T12:28:30.500Z,95039.47
2023-01-15T12:30:56.895Z,95042.18
2023-01-15T12:33:23.240Z,95033.98
2023-01-15T12:35:49.624Z,95038.91
2023-01-15T12:38:15.965Z,95034.22
2023-01-15T12:40:42.388Z,95029.16
2023-01-15T12:43:08.782Z,95030.38
2023-01-15T12:45:35.221Z,95030.38
2023-01-15T12:48:01.631Z,95024.52
2023-01-15T12:50:28.049Z,95018.67
2023-01-15T12:52:54.432Z,95021.94
2023-01-15T12:55:20.911Z,95016.41
2023-01-15T12:57:47.300Z,95013.36
2023-01-15T13:00:13.687Z,95008.77
2023-01-15T13:02:40.172Z,95011.20
2023-01-15T13:05:06.483Z,95008.98
2023-01-15T13:07:32.967Z,95001.06
2023-01-15T13:09:59.327Z,94996.38
2023-01-15T13:12:25.714Z,94998.07
2023-01-15T13:14:52.057Z,95000.41
2023-01-15T13:17:18.506Z,94997.39
2023-01-15T13:19:44.891Z,94984.58
2023-01-15T13:22:11.273Z,94990.14
2023-01-15T13:24:37.629Z,94984.44
2023-01-15T13:27:04.015Z,94982.12
2023-01-15T13:29:30.460Z,94975.67
2023-01-15T13:31:56.927Z,94974.48
2023-01-15T13:34:23.432Z,94970.19
2023-01-15T13:36:49.829Z,94975.08
2023-01-15T13:39:16.253Z,94965.28
2023-01-15T13:41:42.714Z,94963.91
2023-01-15T13:44:09.077Z,94947.97
2023-01-15T13:46:35.453Z,94947.97
2023-01-15T13:49:01.803Z,94963.10
2023-01-15T13:51:28.216Z,94959.26
2023-01-15T13:53:54.564Z,94954.09
2023-01-15T13:56:20.971Z,94956.13
2023-01-15T13:58:47.457Z,94960.34
2023-01-15T14:01:13.871Z,94959.61
2023-01-15T14:03:40.227Z,94956.24
2023-01-15T14:06:06.600Z,94956.17
2023-01-15T14:08:32.965Z,94953.58
2023-01-15T14:10:59.407Z,94953.31
2023-01-15T14:13:25.739Z,94950.95
2023-01-15T14:15:52.135Z,94950.82
2023-01-15T14:18:18.466Z,94947.86
2023-01-15T14:20:44.866Z,94943.39
2023-01-15T14:23:11.285Z,94950.95
2023-01-15T14:25:37.654Z,94951.88
2023-01-15T14:28:04.016Z,94953.11
2023-01-15T14:30:30.421Z,94959.02
2023-01-15T14:32:56.841Z,94958.11
2023-01-15T14:35:23.227Z,94962.20
2023-01-15T14:37:49.561Z,94817.08
2023-01-15T14:40:15.951Z,94938.06
2023-01-15T14:42:42.474Z,94952.30
2023-01-15T14:45:08.835Z,94948.87
2023-01-15T14:47:35.276Z,94948.20
2023-01-15T14:50:01.672Z,94947.39
2023-01-15T14:52:28.007Z,94946.64
2023-01-15T14:54:54.419Z,94950.05
2023-01-15T14:57:20.823Z,94952.84
2023-01-15T14:59:47.274Z,94947.46
2023-01-15T15:02:13.714Z,94941.47
2023-01-15T15:04:40.030Z,94945.82
2023-01-15T15:07:06.415Z,94949.58
2023-01-15T15:09:35.257Z,94949.85
2023-01-15T15:12:01.623Z,94951.70
2023-01-15T15:14:27.998Z,94949.50
2023-01-15T15:16:54.404Z,94958.16
2023-01-15T15:19:24.204Z,94958.16
2023-01-15T15:21:47.201Z,94955.70
2023-01-15T15:24:13.560Z,94953.80
2023-01-15T15:26:39.948Z,94951.61
2023-01-15T15:29:06.533Z,94954.83
2023-01-15T15:31:33.563Z,94954.83
2023-01-15T15:33:59.190Z,94949.50
2023-01-15T15:36:25.581Z,94954.87
2023-01-15T15:38:51.954Z,94956.16
2023-01-15T15:41:18.299Z,94955.49
2023-01-15T15:43:44.749Z,94955.77
2023-01-15T15:46:11.158Z,94956.44
2023-01-15T15:48:37.568Z,94962.43
2023-01-15T15:51:03.994Z,94958.75
2023-01-15T15:53:30.417Z,94957.81
2023-01-15T15:55:56.759Z,94959.58
2023-01-15T15:58:23.200Z,94958.08
2023-01-15T16:00:49.588Z,94956.52
2023-01-15T16:03:15.981Z,94956.52
2023-01-15T16:05:42.445Z,94957.34
2023-01-15T16:08:08.847Z,94951.61
2023-01-15T16:10:35.259Z,94954.59
2023-01-15T16:13:01.645Z,94953.57
2023-01-15T16:15:28.013Z,94953.34
2023-01-15T16:17:54.382Z,94951.38
2023-01-15T16:20:21.971Z,94960.16
2023-01-15T16:22:47.121Z,94957.02
2023-01-15T16:25:13.529Z,94957.45
2023-01-15T16:27:39.958Z,94959.91
2023-01-15T16:30:06.378Z,94964.15
2023-01-15T16:32:32.761Z,94964.77
2023-01-15T16:34:59.107Z,94964.30
2023-01-15T16:37:25.496Z,94963.48
2023-01-15T16:39:51.861Z,94959.25
2023-01-15T16:42:18.239Z,94959.88
2023-01-15T16:44:44.711Z,94960.88
2023-01-15T16:47:11.195Z,94958.88
2023-01-15T16:49:39.318Z,94963.47
2023-01-15T16:52:05.226Z,94968.08
2023-01-15T16:54:30.329Z,94966.11
2023-01-15T16:56:56.709Z,94963.73
2023-01-15T16:59:23.152Z,94963.85
2023-01-15T17:01:49.584Z,94966.91
2023-01-15T17:04:15.804Z,94966.58
2023-01-15T17:06:42.269Z,94963.64
2023-01-15T17:09:08.645Z,94971.41
2023-01-15T17:11:35.119Z,94971.41
2023-01-15T17:14:01.459Z,94972.81
2023-01-15T17:16:27.894Z,94970.50
2023-01-15T17:18:54.355Z,94968.14
2023-01-15T17:21:20.737Z,94960.16
2023-01-15T17:23:47.104Z,94958.86
2023-01-15T17:26:13.488Z,94960.16
2023-01-15T17:28:39.828Z,94967.91
2023-01-15T17:31:06.257Z,94965.59
2023-01-15T17:33:32.595Z,94967.03
2023-01-15T17:35:58.978Z,94965.73
2023-01-15T17:38:25.359Z,94965.03
2023-01-15T17:40:51.794Z,94962.95
2023-01-15T17:43:18.183Z,94967.62
2023-01-15T17:45:44.653Z,94968.80
2023-01-15T17:48:11.023Z,94967.03
2023-01-15T17:50:37.419Z,94963.42
2023-01-15T17:53:03.752Z,94965.53
2023-01-15T17:55:30.149Z,94963.45
2023-01-15T17:57:56.501Z,94960.55
2023-01-15T18:00:22.988Z,94960.20
2023-01-15T18:02:49.408Z,94964.89
2023-01-15T18:05:15.771Z,94962.42
2023-01-15T18:07:42.196Z,94961.48
2023-01-15T18:10:08.572Z,94963.44
2023-01-15T18:12:34.918Z,94948.45
2023-01-15T18:15:01.407Z,94949.09
2023-01-15T18:17:27.931Z,94948.74
2023-01-15T18:19:55.796Z,94946.52
2023-01-15T18:22:20.660Z,94945.89
2023-01-15T18:24:47.085Z,94947.80
2023-01-15T18:27:13.428Z,94943.38
2023-01-15T18:29:39.816Z,94946.31
2023-01-15T18:32:06.154Z,94946.63
2023-01-15T18:34:32.549Z,94951.47
2023-01-15T18:36:58.899Z,94949.73
2023-01-15T18:39:25.311Z,94957.49
2023-01-15T18:41:52.867Z,94952.33
2023-01-15T18:44:18.061Z,94959.14
2023-01-15T18:46:44.430Z,94955.73
2023-01-15T18:49:10.790Z,94948.92
2023-01-15T18:51:37.213Z,94948.92
2023-01-15T18:54:05.282Z,94940.97
2023-01-15T18:56:29.937Z,94935.21
2023-01-15T18:58:56.887Z,94935.53
2023-01-15T19:01:22.768Z,94936.83
2023-01-15T19:03:49.147Z,94932.27
2023-01-15T19:06:15.479Z,94925.20
2023-01-15T19:08:41.897Z,94929.69
2023-01-15T19:11:08.296Z,94932.74
2023-01-15T19:13:34.737Z,94931.36
2023-01-15T19:16:01.177Z,94934.97
2023-01-15T19:18:27.597Z,94936.41
2023-01-15T19:20:54.013Z,94929.95
2023-01-15T19:23:20.381Z,94930.08
2023-01-15T19:25:46.765Z,94930.34
2023-01-15T19:28:13.177Z,94938.61
2023-01-15T19:30:39.539Z,94926.28
2023-01-15T19:33:05.914Z,94933.06
2023-01-15T19:35:32.410Z,94931.98
2023-01-15T19:37:58.943Z,94929.66
2023-01-15T19:40:25.262Z,94931.53
2023-01-15T19:42:51.674Z,94927.66
2023-01-15T19:45:18.048Z,94930.13
2023-01-15T19:47:44.459Z,94930.01
2023-01-15T19:50:10.800Z,94938.23
2023-01-15T19:52:37.195Z,94938.47
2023-01-15T19:55:04.867Z,94933.56
2023-01-15T19:57:29.965Z,94938.73
2023-01-15T19:59:56.314Z,94935.32
2023-01-15T20:02:22.701Z,94932.27
2023-01-15T20:04:49.096Z,94930.42
2023-01-15T20:07:15.482Z,94935.79
2023-01-15T20:09:41.830Z,94934.85
2023-01-15T20:12:08.233Z,94925.58
2023-01-15T20:14:34.574Z,94924.78
2023-01-15T20:17:00.949Z,94929.45
2023-01-15T20:19:28.381Z,94930.42
2023-01-15T20:21:53.680Z,94933.12
2023-01-15T20:24:20.015Z,94940.39
2023-01-15T20:26:46.415Z,94933.27
2023-01-15T20:29:12.801Z,94933.12
2023-01-15T20:31:39.279Z,94930.53
2023-01-15T20:34:05.592Z,94922.78
2023-01-15T20:36:31.970Z,94930.42
2023-01-15T20:38:58.310Z,94927.74
2023-01-15T20:41:24.731Z,94924.13
2023-01-15T20:43:51.188Z,94923.20
2023-01-15T20:46:17.546Z,94923.05
2023-01-15T20:48:43.896Z,94925.78
2023-01-15T20:51:10.305Z,94921.91
2023-01-15T20:53:36.739Z,94918.91
2023-01-15T20:56:03.138Z,94922.94
2023-01-15T20:58:29.582Z,94921.41
2023-01-15T21:00:55.861Z,94919.88
2023-01-15T21:03:22.207Z,94917.77
2023-01-15T21:05:48.675Z,94916.23
2023-01-15T21:08:14.996Z,94918.44
2023-01-15T21:10:41.419Z,94916.77
2023-01-15T21:13:07.756Z,94917.51
2023-01-15T21:15:34.161Z,94918.27
2023-01-15T21:18:00.822Z,94913.92
2023-01-15T21:20:28.643Z,94915.80
2023-01-15T21:22:53.610Z,94911.05
2023-01-15T21:25:20.066Z,94905.27
2023-01-15T21:27:46.541Z,94902.57
2023-01-15T21:30:12.917Z,94905.94
2023-01-15T21:32:39.360Z,94901.86
2023-01-15T21:35:05.780Z,94900.92
2023-01-15T21:37:32.200Z,94898.81
2023-01-15T21:39:58.606Z,94891.73
2023-01-15T21:42:24.965Z,94894.47
2023-01-15T21:44:51.419Z,94891.80
2023-01-15T21:47:17.741Z,94888.13
2023-01-15T21:49:44.125Z,94889.92
2023-01-15T21:52:10.472Z,94892.35
2023-01-15T21:54:36.858Z,94888.81
2023-01-15T21:57:03.199Z,94877.70
2023-01-15T21:59:29.664Z,94883.89
2023-01-15T22:01:56.104Z,94882.05
2023-01-15T22:04:22.449Z,94882.14
2023-01-15T22:06:48.791Z,94883.64
2023-01-15T22:09:15.204Z,94877.39
2023-01-15T22:11:41.581Z,94874.55
2023-01-15T22:14:10.136Z,94874.55
2023-01-15T22:16:36.508Z,94867.97
2023-01-15T22:19:02.875Z,94873.92
2023-01-15T22:21:29.213Z,94874.42
2023-01-15T22:23:55.587Z,94869.73
2023-01-15T22:26:21.939Z,94873.13
2023-01-15T22:28:48.475Z,94867.73
2023-01-15T22:31:14.824Z,94873.40
2023-01-15T22:33:41.223Z,94872.11
2023-01-15T22:36:07.568Z,94867.41
2023-01-15T22:38:33.991Z,94865.15
2023-01-15T22:41:00.339Z,94862.56
2023-01-15T22:43:28.713Z,94856.61
2023-01-15T22:45:53.136Z,94857.91
2023-01-15T22:48:19.570Z,94849.07
2023-01-15T22:50:45.921Z,94851.65
2023-01-15T22:53:12.318Z,94848.05
2023-01-15T22:55:38.659Z,94840.30
2023-01-15T22:58:05.049Z,94842.53
2023-01-15T23:03:13.673Z,94849.07
2023-01-15T23:05:40.042Z,94843.91
2023-01-15T23:08:06.393Z,94833.69
2023-01-15T23:10:32.871Z,94834.31
2023-01-15T23:12:59.300Z,94827.70
2023-01-15T23:15:25.761Z,94833.22
2023-01-15T23:17:52.126Z,94824.80
2023-01-15T23:20:18.502Z,94826.41
2023-01-15T23:22:44.871Z,94826.77
2023-01-15T23:25:11.297Z,94826.77
2023-01-15T23:27:37.627Z,94820.78
2023-01-15T23:30:03.994Z,94818.55
2023-01-15T23:32:30.357Z,94817.73
2023-01-15T23:34:56.711Z,94814.80
2023-01-15T23:37:23.088Z,94818.67
2023-01-15T23:39:49.489Z,94808.22
2023-01-15T23:42:15.867Z,94809.04
2023-01-15T23:44:42.247Z,94813.50
2023-01-15T23:47:08.656Z,94815.50
2023-01-15T23:49:35.085Z,94819.17
2023-01-15T23:52:01.528Z,94815.30
2023-01-15T23:54:27.842Z,94812.56
2023-01-15T23:56:54.300Z,94814.41
2023-01-15T23:59:20.692Z,94815.50
